createdAt,value
2018-03-24T05:00:41.396Z,95.64
2018-03-24T05:01:06.848Z,95.45
2018-03-24T05:02:20.610Z,96.02
2018-03-24T05:02:46.052Z,95.55
2018-03-24T05:03:11.524Z,95.93
2018-03-24T05:03:37.011Z,96.12
2018-03-24T05:04:02.509Z,95.64
2018-03-24T05:04:28.137Z,95.93
2018-03-24T05:04:53.640Z,95.45
2018-03-24T05:05:19.160Z,96.12
2018-03-24T05:05:44.696Z,95.64
2018-03-24T05:06:10.150Z,95.55
2018-03-24T05:06:35.652Z,95.45
2018-03-24T05:07:01.191Z,96.12
2018-03-24T05:07:26.547Z,95.26
2018-03-24T05:07:52.038Z,95.45
2018-03-24T05:08:17.502Z,95.64
2018-03-24T05:08:43.009Z,95.45
2018-03-24T05:09:08.420Z,96.02
2018-03-24T05:09:33.917Z,95.83
2018-03-24T05:09:59.409Z,95.74
2018-03-24T05:10:24.834Z,95.36
2018-03-24T05:10:50.328Z,95.55
2018-03-24T05:11:15.774Z,95.45
2018-03-24T05:11:41.230Z,95.36
2018-03-24T05:12:06.672Z,95.45
2018-03-24T05:12:32.148Z,95.64
2018-03-24T05:12:57.622Z,95.55
2018-03-24T05:13:23.143Z,95.45
2018-03-24T05:13:48.555Z,95.45
2018-03-24T05:14:14.038Z,95.36
2018-03-24T05:14:39.529Z,95.64
2018-03-24T05:15:05.019Z,95.26
2018-03-24T05:15:30.542Z,95.07
2018-03-24T05:15:56.038Z,95.26
2018-03-24T05:16:21.469Z,95.45
2018-03-24T05:16:46.943Z,95.74
2018-03-24T05:17:12.393Z,95.74
2018-03-24T05:17:37.866Z,96.02
2018-03-24T05:18:03.355Z,95.45
2018-03-24T05:18:28.823Z,95.55
2018-03-24T05:18:54.289Z,95.74
2018-03-24T05:19:19.793Z,95.74
2018-03-24T05:19:45.343Z,95.93
2018-03-24T05:20:10.834Z,95.55
2018-03-24T05:20:36.278Z,95.74
2018-03-24T05:21:01.746Z,95.74
2018-03-24T05:21:27.228Z,95.55
2018-03-24T05:21:52.652Z,96.12
2018-03-24T05:22:18.178Z,96.21
2018-03-24T05:22:43.630Z,96.12
2018-03-24T05:23:09.109Z,96.12
2018-03-24T05:23:34.680Z,96.02
2018-03-24T05:24:00.110Z,96.31
2018-03-24T05:24:25.601Z,96.02
2018-03-24T05:24:51.024Z,96.02
2018-03-24T05:25:16.508Z,96.31
2018-03-24T05:25:42.026Z,96.12
2018-03-24T05:26:07.433Z,96.02
2018-03-24T05:26:32.913Z,96.02
2018-03-24T05:26:58.397Z,96.02
2018-03-24T05:27:23.817Z,96.02
2018-03-24T05:27:49.292Z,96.02
2018-03-24T05:28:14.771Z,95.93
2018-03-24T05:28:40.278Z,95.64
2018-03-24T05:29:38.789Z,96.02
2018-03-24T05:30:04.332Z,96.02
2018-03-24T05:30:29.850Z,96.02
2018-03-24T05:30:55.357Z,95.74
2018-03-24T05:31:20.851Z,95.93
2018-03-24T05:31:46.351Z,95.93
2018-03-24T05:32:11.797Z,95.74
2018-03-24T05:32:37.299Z,96.02
2018-03-24T05:33:02.719Z,96.12
2018-03-24T05:33:28.224Z,96.21
2018-03-24T05:33:53.670Z,96.02
2018-03-24T05:34:19.132Z,96.12
2018-03-24T05:34:44.597Z,96.12
2018-03-24T05:35:10.112Z,96.12
2018-03-24T05:35:35.517Z,96.02
2018-03-24T05:36:00.980Z,95.74
2018-03-24T05:36:26.407Z,95.74
2018-03-24T05:36:51.898Z,96.21
2018-03-24T05:37:17.350Z,95.74
2018-03-24T05:37:42.854Z,95.74
2018-03-24T05:38:08.300Z,95.93
2018-03-24T05:38:33.798Z,95.83
2018-03-24T05:38:59.362Z,95.83
2018-03-24T05:39:24.816Z,95.74
2018-03-24T05:39:50.275Z,95.74
2018-03-24T05:40:15.773Z,95.83
2018-03-24T05:40:41.293Z,95.64
2018-03-24T05:41:07.012Z,95.74
2018-03-24T05:41:32.509Z,95.93
2018-03-24T05:41:57.996Z,96.12
2018-03-24T05:42:23.465Z,96.12
2018-03-24T05:42:48.989Z,95.83
2018-03-24T05:43:14.448Z,96.02
2018-03-24T05:43:39.918Z,95.83
2018-03-24T05:44:05.480Z,95.83
2018-03-24T05:44:30.972Z,96.02
2018-03-24T05:44:56.625Z,96.21
2018-03-24T05:45:22.095Z,96.02
2018-03-24T05:45:47.645Z,95.83
2018-03-24T05:46:13.122Z,95.74
2018-03-24T05:46:38.582Z,96.21
2018-03-24T05:47:04.089Z,96.21
2018-03-24T05:47:29.569Z,96.21
2018-03-24T05:47:55.037Z,95.64
2018-03-24T05:48:20.542Z,96.12
2018-03-24T05:48:46.028Z,96.02
2018-03-24T05:49:11.484Z,95.74
2018-03-24T05:50:25.298Z,95.93
2018-03-24T05:50:50.788Z,95.74
2018-03-24T05:51:16.286Z,96.02
2018-03-24T05:51:41.780Z,95.74
2018-03-24T05:52:07.279Z,95.74
2018-03-24T05:52:32.744Z,95.83
2018-03-24T05:52:58.181Z,95.93
2018-03-24T05:53:23.644Z,96.02
2018-03-24T05:53:49.171Z,96.12
2018-03-24T05:54:14.764Z,96.12
2018-03-24T05:54:40.329Z,96.31
2018-03-24T05:55:05.733Z,96.12
2018-03-24T05:55:31.267Z,96.12
2018-03-24T05:55:56.704Z,96.02
2018-03-24T05:56:22.146Z,96.12
2018-03-24T05:56:47.643Z,96.02
2018-03-24T05:57:13.121Z,96.02
2018-03-24T05:57:38.623Z,96.02
2018-03-24T05:58:04.065Z,95.83
2018-03-24T05:58:29.536Z,95.83
2018-03-24T05:58:55.038Z,95.83
2018-03-24T05:59:20.536Z,95.83
2018-03-24T05:59:46.014Z,95.74
2018-03-24T06:00:11.488Z,96.02
2018-03-24T06:00:37.098Z,96.02
2018-03-24T06:01:02.614Z,96.02
2018-03-24T06:01:28.119Z,95.55
2018-03-24T06:01:53.524Z,95.74
2018-03-24T06:03:07.304Z,95.74
2018-03-24T06:03:32.838Z,96.12
2018-03-24T06:03:58.313Z,96.02
2018-03-24T06:04:23.787Z,96.02
2018-03-24T06:04:49.235Z,96.02
2018-03-24T06:05:14.721Z,96.02
2018-03-24T06:05:40.307Z,96.12
2018-03-24T06:06:05.801Z,96.31
2018-03-24T06:06:31.296Z,95.93
2018-03-24T06:06:56.802Z,96.12
2018-03-24T06:07:22.287Z,96.12
2018-03-24T06:07:47.752Z,96.12
2018-03-24T06:08:13.254Z,96.12
2018-03-24T06:08:38.734Z,96.21
2018-03-24T06:09:04.246Z,95.83
2018-03-24T06:09:29.738Z,95.83
2018-03-24T06:09:55.231Z,95.93
2018-03-24T06:10:20.763Z,96.02
2018-03-24T06:10:46.256Z,96.02
2018-03-24T06:11:11.761Z,96.21
2018-03-24T06:11:37.246Z,96.02
2018-03-24T06:12:40.929Z,96.21
2018-03-24T06:13:06.402Z,95.93
2018-03-24T06:13:31.868Z,96.02
2018-03-24T06:13:57.394Z,95.93
2018-03-24T06:14:22.912Z,95.74
2018-03-24T06:14:48.360Z,95.64
2018-03-24T06:15:13.832Z,95.74
2018-03-24T06:15:39.329Z,95.93
2018-03-24T06:16:04.773Z,95.93
2018-03-24T06:16:30.250Z,95.93
2018-03-24T06:16:55.759Z,95.74
2018-03-24T06:17:21.246Z,95.83
2018-03-24T06:17:46.732Z,95.93
2018-03-24T06:18:12.239Z,96.02
2018-03-24T06:18:37.661Z,96.02
2018-03-24T06:19:03.175Z,95.93
2018-03-24T06:19:28.668Z,95.93
2018-03-24T06:19:54.153Z,95.93
2018-03-24T06:20:19.642Z,95.74
2018-03-24T06:20:45.105Z,95.93
2018-03-24T06:21:10.603Z,95.93
2018-03-24T06:21:36.107Z,96.02
2018-03-24T06:22:01.606Z,95.74
2018-03-24T06:22:27.110Z,95.83
2018-03-24T06:22:52.630Z,95.83
2018-03-24T06:23:18.112Z,95.74
2018-03-24T06:23:43.545Z,95.93
2018-03-24T06:24:09.002Z,95.93
2018-03-24T06:24:34.486Z,95.74
2018-03-24T06:24:59.973Z,95.88
2018-03-24T06:25:25.430Z,96.12
2018-03-24T06:25:50.911Z,96.02
2018-03-24T06:26:16.380Z,96.02
2018-03-24T06:26:41.823Z,95.98
2018-03-24T06:27:36.284Z,96.07
2018-03-24T06:28:01.771Z,95.83
2018-03-24T06:28:27.270Z,96.07
2018-03-24T06:28:52.723Z,95.98
2018-03-24T06:29:18.214Z,96.17
2018-03-24T06:29:43.704Z,95.98
2018-03-24T06:30:09.269Z,96.07
2018-03-24T06:30:34.782Z,95.98
2018-03-24T06:31:38.371Z,96.07
2018-03-24T06:32:03.865Z,95.41
2018-03-24T06:32:29.362Z,95.69
2018-03-24T06:32:54.860Z,95.6
2018-03-24T06:33:58.473Z,95.6
2018-03-24T06:34:23.941Z,95.6
2018-03-24T06:34:49.459Z,95.88
2018-03-24T06:35:14.932Z,95.6
2018-03-24T06:35:40.418Z,95.6
2018-03-24T06:36:05.997Z,95.5
2018-03-24T06:36:31.473Z,95.69
2018-03-24T06:36:56.973Z,95.69
2018-03-24T06:37:22.436Z,95.31
2018-03-24T06:37:47.964Z,95.12
2018-03-24T06:38:13.464Z,95.03
2018-03-24T06:38:38.940Z,95.41
2018-03-24T06:39:04.444Z,95.12
2018-03-24T06:39:29.946Z,95.12
2018-03-24T06:39:55.397Z,95.12
2018-03-24T06:40:20.858Z,95.36
2018-03-24T06:40:46.353Z,95.36
2018-03-24T06:41:11.881Z,95.36
2018-03-24T06:41:37.360Z,95.17
2018-03-24T06:42:02.882Z,95.36
2018-03-24T06:42:28.382Z,95.26
2018-03-24T06:42:53.871Z,95.17
2018-03-24T06:43:19.357Z,95.55
2018-03-24T06:43:44.849Z,94.79
2018-03-24T06:44:10.409Z,94.89
2018-03-24T06:44:35.981Z,95.07
2018-03-24T06:45:01.433Z,95.07
2018-03-24T06:45:26.918Z,95.17
2018-03-24T06:45:52.435Z,95.26
2018-03-24T06:46:17.961Z,94.42
2018-03-24T06:46:43.600Z,94.13
2018-03-24T06:47:09.084Z,93.84
2018-03-24T06:47:34.594Z,93.56
2018-03-24T06:48:00.133Z,93.46
2018-03-24T06:48:25.604Z,93.61
2018-03-24T06:48:51.092Z,93.61
2018-03-24T06:49:16.618Z,93.27
2018-03-24T06:49:42.088Z,92.66
2018-03-24T06:50:07.574Z,92.28
2018-03-24T06:50:33.051Z,92.18
2018-03-24T06:50:58.546Z,91.99
2018-03-24T06:51:24.042Z,92.09
2018-03-24T06:51:49.525Z,91.99
2018-03-24T06:52:15.007Z,91.71
2018-03-24T06:52:40.505Z,91.99
2018-03-24T06:53:05.957Z,92.09
2018-03-24T06:53:31.417Z,91.9
2018-03-24T06:53:56.968Z,91.9
2018-03-24T06:54:22.494Z,91.52
2018-03-24T06:54:47.972Z,91.71
2018-03-24T06:55:13.443Z,91.8
2018-03-24T06:55:38.926Z,91.24
2018-03-24T06:56:04.486Z,91.14
2018-03-24T06:57:03.033Z,90.86
2018-03-24T06:57:28.532Z,90.95
2018-03-24T06:57:54.101Z,91.24
2018-03-24T06:58:19.572Z,91.05
2018-03-24T06:58:45.063Z,91.05
2018-03-24T06:59:10.549Z,90.95
2018-03-24T06:59:36.046Z,90.67
2018-03-24T07:00:34.760Z,90.67
2018-03-24T07:01:00.228Z,90.19
2018-03-24T07:01:25.686Z,90.67
2018-03-24T07:01:51.180Z,90.19
2018-03-24T07:02:16.665Z,90.57
2018-03-24T07:02:42.184Z,90.57
2018-03-24T07:03:07.816Z,90.67
2018-03-24T07:03:33.344Z,90.67
2018-03-24T07:03:58.805Z,90.86
2018-03-24T07:04:24.314Z,90.57
2018-03-24T07:04:49.885Z,90.67
2018-03-24T07:05:15.470Z,90.67
2018-03-24T07:05:40.902Z,90.76
2018-03-24T07:06:06.431Z,90.76
2018-03-24T07:06:31.918Z,91.05
2018-03-24T07:06:57.387Z,91.05
2018-03-24T07:07:22.943Z,91.05
2018-03-24T07:07:48.452Z,90.86
2018-03-24T07:08:13.909Z,91.05
2018-03-24T07:08:39.408Z,90.95
2018-03-24T07:09:04.907Z,90.19
2018-03-24T07:09:30.361Z,90.29
2018-03-24T07:09:55.809Z,89.62
2018-03-24T07:10:21.323Z,89.15
2018-03-24T07:10:46.785Z,89.43
2018-03-24T07:11:12.263Z,89.53
2018-03-24T07:11:37.784Z,89.91
2018-03-24T07:12:03.258Z,88.58
2018-03-24T07:13:06.891Z,89.15
2018-03-24T07:13:32.374Z,89.34
2018-03-24T07:13:57.860Z,88.96
2018-03-24T07:14:23.457Z,88.96
2018-03-24T07:14:48.877Z,88.87
2018-03-24T07:15:14.368Z,89.06
2018-03-24T07:15:39.843Z,88.77
2018-03-24T07:16:05.428Z,89.06
2018-03-24T07:16:30.912Z,88.96
2018-03-24T07:16:56.505Z,89.06
2018-03-24T07:17:21.896Z,89.06
2018-03-24T07:17:47.398Z,88.77
2018-03-24T07:18:12.888Z,89.06
2018-03-24T07:18:38.384Z,89.25
2018-03-24T07:19:03.872Z,88.87
2018-03-24T07:19:29.589Z,88.68
2018-03-24T07:19:54.920Z,89.29
2018-03-24T07:20:20.431Z,89.25
2018-03-24T07:20:46.140Z,88.43
2018-03-24T07:21:11.572Z,88.72
2018-03-24T07:21:37.018Z,88.06
2018-03-24T07:22:02.462Z,87.96
2018-03-24T07:22:27.918Z,88.06
2018-03-24T07:22:53.383Z,87.77
2018-03-24T07:23:18.831Z,88.24
2018-03-24T07:23:44.285Z,88.81
2018-03-24T07:24:09.782Z,88.06
2018-03-24T07:24:35.354Z,87.68
2018-03-24T07:25:00.965Z,88.43
2018-03-24T07:25:26.428Z,87.58
2018-03-24T07:25:51.879Z,87.96
2018-03-24T07:26:17.336Z,87.77
2018-03-24T07:26:42.830Z,87.68
2018-03-24T07:27:08.353Z,87.58
2018-03-24T07:27:33.786Z,88.06
2018-03-24T07:27:59.320Z,87.87
2018-03-24T07:28:24.837Z,87.2
2018-03-24T07:28:50.329Z,86.91
2018-03-24T07:29:15.727Z,86.91
2018-03-24T07:29:41.229Z,86.72
2018-03-24T07:30:06.701Z,87.11
2018-03-24T07:30:32.179Z,87.2
2018-03-24T07:30:57.717Z,87.68
2018-03-24T07:31:23.148Z,87.3
2018-03-24T07:31:48.642Z,88.15
2018-03-24T07:32:14.110Z,87.2
2018-03-24T07:32:39.681Z,87.39
2018-03-24T07:33:05.047Z,87.77
2018-03-24T07:33:30.537Z,86.63
2018-03-24T07:33:56.166Z,86.16
2018-03-24T07:34:21.691Z,85.68
2018-03-24T07:34:47.165Z,85.87
2018-03-24T07:35:12.605Z,85.68
2018-03-24T07:35:38.097Z,86.2
2018-03-24T07:36:03.541Z,85.72
2018-03-24T07:36:29.122Z,85.44
2018-03-24T07:36:54.541Z,85.53
2018-03-24T07:37:20.011Z,85.44
2018-03-24T07:37:45.456Z,85.82
2018-03-24T07:38:10.867Z,86.68
2018-03-24T07:38:36.361Z,86.11
2018-03-24T07:39:01.799Z,85.63
2018-03-24T07:39:27.277Z,84.49
2018-03-24T07:39:52.866Z,84.21
2018-03-24T07:40:18.317Z,84.21
2018-03-24T07:40:43.927Z,84.01
2018-03-24T07:41:09.342Z,84.11
2018-03-24T07:41:34.863Z,84.68
2018-03-24T07:42:00.263Z,84.78
2018-03-24T07:42:25.756Z,84.78
2018-03-24T07:42:51.249Z,84.49
2018-03-24T07:43:16.683Z,85.25
2018-03-24T07:43:42.225Z,84.87
2018-03-24T07:44:07.648Z,85.53
2018-03-24T07:44:33.156Z,84.49
2018-03-24T07:44:58.621Z,84.87
2018-03-24T07:45:24.066Z,84.49
2018-03-24T07:45:49.555Z,84.49
2018-03-24T07:46:15.115Z,84.59
2018-03-24T07:46:40.462Z,84.87
2018-03-24T07:47:05.934Z,85.63
2018-03-24T07:47:31.436Z,85.35
2018-03-24T07:47:56.896Z,85.25
2018-03-24T07:48:22.431Z,85.35
2018-03-24T07:48:47.980Z,85.53
2018-03-24T07:49:13.459Z,85.49
2018-03-24T07:49:39.059Z,84.91
2018-03-24T07:50:04.435Z,84.53
2018-03-24T07:50:29.923Z,84.63
2018-03-24T07:50:55.490Z,83.97
2018-03-24T07:51:20.927Z,83.87
2018-03-24T07:51:46.379Z,83.78
2018-03-24T07:52:11.873Z,83.49
2018-03-24T07:52:37.311Z,83.3
2018-03-24T07:53:02.763Z,83.78
2018-03-24T07:53:28.252Z,83.2
2018-03-24T07:53:53.812Z,83.68
2018-03-24T07:54:19.282Z,84.34
2018-03-24T07:54:44.772Z,83.78
2018-03-24T07:55:10.182Z,83.11
2018-03-24T07:55:35.698Z,83.3
2018-03-24T07:56:01.105Z,83.78
2018-03-24T07:56:26.551Z,83.78
2018-03-24T08:45:23.794Z,79.92
2018-03-24T08:45:49.312Z,80.4
2018-03-24T08:46:14.825Z,80.02
2018-03-24T08:46:40.282Z,79.73
2018-03-24T08:47:05.750Z,78.97
2018-03-24T08:47:31.289Z,78.88
2018-03-24T08:47:56.821Z,78.88
2018-03-24T08:48:22.271Z,78.44
2018-03-24T08:48:47.796Z,77.26
2018-03-24T08:49:13.292Z,77.26
2018-03-24T08:49:38.787Z,77.36
2018-03-24T08:50:04.277Z,77.73
2018-03-24T08:50:29.759Z,78.11
2018-03-24T08:50:55.230Z,78.3
2018-03-24T08:51:20.757Z,78.02
2018-03-24T08:51:46.312Z,78.21
2018-03-24T08:52:11.784Z,77.92
2018-03-24T08:52:37.276Z,78.44
2018-03-24T08:53:02.769Z,78.53
2018-03-24T08:53:28.202Z,78.53
2018-03-24T08:53:53.662Z,77.97
2018-03-24T08:54:19.145Z,78.16
2018-03-24T08:55:33.982Z,77.87
2018-03-24T08:55:59.466Z,77.58
2018-03-24T08:56:24.939Z,77.68
2018-03-24T08:56:50.415Z,77.68
2018-03-24T08:57:15.857Z,78.25
2018-03-24T08:57:41.481Z,77.58
2018-03-24T08:58:07.061Z,77.87
2018-03-24T08:58:32.555Z,77.39
2018-03-24T08:58:58.006Z,77.3
2018-03-24T08:59:23.541Z,77.87
2018-03-24T08:59:49.047Z,77.68
2018-03-24T09:00:14.550Z,77.39
2018-03-24T09:00:40.025Z,77.97
2018-03-24T09:01:05.673Z,77.39
2018-03-24T09:01:31.169Z,76.82
2018-03-24T09:01:56.765Z,76.73
2018-03-24T09:02:22.170Z,76.63
2018-03-24T09:02:47.637Z,76.63
2018-03-24T09:03:13.135Z,76.06
2018-03-24T09:03:38.623Z,76.44
2018-03-24T09:04:04.093Z,76.92
2018-03-24T09:04:29.571Z,76.92
2018-03-24T09:04:55.059Z,76.63
2018-03-24T09:05:20.612Z,75.78
2018-03-24T09:05:46.191Z,75.78
2018-03-24T09:06:11.753Z,76.82
2018-03-24T09:06:37.177Z,76.54
2018-03-24T09:07:02.647Z,76.63
2018-03-24T09:07:28.164Z,76.82
2018-03-24T09:08:37.126Z,76.67
2018-03-24T09:09:02.667Z,77.34
2018-03-24T09:09:28.125Z,76.92
2018-03-24T09:09:53.590Z,76.73
2018-03-24T09:10:19.088Z,77.34
2018-03-24T09:10:44.621Z,77.05
2018-03-24T09:11:10.105Z,76.76
2018-03-24T09:11:35.558Z,76.67
2018-03-24T09:12:01.055Z,77.05
2018-03-24T09:12:26.540Z,76.57
2018-03-24T09:12:52.057Z,76.2
2018-03-24T09:13:17.594Z,77.05
2018-03-24T09:13:43.101Z,76.1
2018-03-24T09:14:08.623Z,75.81
2018-03-24T09:14:34.113Z,75.81
2018-03-24T09:14:59.574Z,75.91
2018-03-24T09:15:25.101Z,75.34
2018-03-24T09:15:50.576Z,75.43
2018-03-24T09:16:16.049Z,75.43
2018-03-24T09:16:41.547Z,75.81
2018-03-24T09:17:07.123Z,75.34
2018-03-24T09:17:32.659Z,75.34
2018-03-24T09:17:58.203Z,75.05
2018-03-24T09:18:23.710Z,75.15
2018-03-24T09:19:23.217Z,74.77
2018-03-24T09:19:48.715Z,74.1
2018-03-24T09:20:14.176Z,74.1
2018-03-24T09:20:39.669Z,73.82
2018-03-24T09:21:05.176Z,73.72
2018-03-24T09:21:30.684Z,74.01
2018-03-24T09:21:56.182Z,74.24
2018-03-24T09:22:21.685Z,74.48
2018-03-24T09:22:47.167Z,74.62
2018-03-24T09:23:12.696Z,75.28
2018-03-24T09:23:38.180Z,75.09
2018-03-24T09:24:03.673Z,75.09
2018-03-24T09:24:29.201Z,75.67
2018-03-24T09:24:54.698Z,74.9
2018-03-24T09:25:20.184Z,74.99
2018-03-24T09:25:45.666Z,74.9
2018-03-24T09:26:11.168Z,74.14
2018-03-24T09:26:36.642Z,73.38
2018-03-24T09:27:02.120Z,73.47
2018-03-24T09:27:27.612Z,73.1
2018-03-24T09:27:53.089Z,73.38
2018-03-24T09:28:18.592Z,72.62
2018-03-24T09:28:44.052Z,72.05
2018-03-24T09:29:09.519Z,72.05
2018-03-24T09:29:35.023Z,72.05
2018-03-24T09:30:00.708Z,72.42
2018-03-24T09:30:26.085Z,72.62
2018-03-24T09:31:39.902Z,73.57
2018-03-24T09:32:05.382Z,73.57
2018-03-24T09:32:30.843Z,72.42
2018-03-24T09:32:56.374Z,72.42
2018-03-24T09:33:21.831Z,72.05
2018-03-24T09:33:47.367Z,72.05
2018-03-24T09:34:12.839Z,72.9
2018-03-24T09:34:38.322Z,73
2018-03-24T09:35:03.811Z,72.71
2018-03-24T09:35:29.271Z,73.28
2018-03-24T09:35:54.760Z,72.71
2018-03-24T09:36:53.302Z,72.62
2018-03-24T09:37:18.793Z,72.42
2018-03-24T09:37:44.286Z,72.71
2018-03-24T09:38:09.742Z,72.71
2018-03-24T09:38:35.342Z,72.42
2018-03-24T09:39:33.846Z,73.66
2018-03-24T09:39:59.296Z,72.9
2018-03-24T09:40:24.774Z,72.81
2018-03-24T09:40:50.250Z,71.95
2018-03-24T09:41:15.750Z,72.14
2018-03-24T09:41:41.269Z,72.81
2018-03-24T09:42:06.754Z,72.14
2018-03-24T09:42:32.266Z,71.76
2018-03-24T09:42:57.734Z,71.67
2018-03-24T09:43:23.222Z,71.57
2018-03-24T09:43:48.737Z,70.24
2018-03-24T09:44:14.251Z,69.85
2018-03-24T09:44:39.739Z,70.24
2018-03-24T09:45:05.244Z,70.43
2018-03-24T09:45:30.711Z,70.52
2018-03-24T09:45:56.226Z,70.62
2018-03-24T09:46:21.684Z,71.47
2018-03-24T09:46:47.168Z,71.67
2018-03-24T09:47:12.646Z,71
2018-03-24T09:47:38.173Z,70.33
2018-03-24T09:48:03.656Z,70.9
2018-03-24T09:48:29.202Z,70.43
2018-03-24T09:48:54.676Z,70.72
2018-03-24T09:49:20.174Z,70.9
2018-03-24T09:49:45.666Z,71.76
2018-03-24T09:50:11.168Z,70.62
2018-03-24T09:50:36.650Z,70.81
2018-03-24T09:51:02.181Z,70.47
2018-03-24T09:51:27.659Z,70.33
2018-03-24T09:51:53.194Z,69.95
2018-03-24T09:52:18.637Z,70.14
2018-03-24T09:52:44.314Z,70.14
2018-03-24T09:53:09.800Z,70.43
2018-03-24T09:53:35.327Z,70.65
2018-03-24T09:54:00.828Z,70.72
2018-03-24T09:54:26.469Z,70.52
2018-03-24T09:54:51.832Z,70.18
2018-03-24T09:55:17.440Z,70.56
2018-03-24T09:55:42.804Z,70.62
2018-03-24T09:56:08.339Z,70.27
2018-03-24T09:56:33.766Z,69.7
2018-03-24T09:56:59.307Z,69.57
2018-03-24T09:57:24.815Z,69.13
2018-03-24T09:57:50.330Z,68.56
2018-03-24T09:58:15.813Z,68.65
2018-03-24T09:58:41.319Z,69.04
2018-03-24T09:59:06.813Z,68.81
2018-03-24T09:59:32.319Z,69.48
2018-03-24T09:59:57.795Z,70.37
2018-03-24T10:00:23.330Z,70.27
2018-03-24T10:00:48.836Z,70.65
2018-03-24T10:01:14.334Z,70.84
2018-03-24T10:01:39.823Z,70.18
2018-03-24T10:02:05.361Z,70.08
2018-03-24T10:02:30.837Z,69.51
2018-03-24T10:02:56.317Z,69.13
2018-03-24T10:03:21.808Z,68.37
2018-03-24T10:03:47.300Z,68.27
2018-03-24T10:04:12.819Z,68.75
2018-03-24T10:04:38.334Z,68.46
2018-03-24T10:05:03.813Z,67.8
2018-03-24T10:05:29.332Z,67.8
2018-03-24T10:05:54.817Z,67.61
2018-03-24T10:06:20.310Z,67.03
2018-03-24T10:06:45.779Z,67.13
2018-03-24T10:07:11.308Z,66.85
2018-03-24T10:07:37.048Z,66.94
2018-03-24T10:08:02.409Z,66.75
2018-03-24T10:08:28.098Z,66.66
2018-03-24T10:08:54.123Z,66.18
2018-03-24T10:09:19.881Z,66.37
2018-03-24T10:09:46.243Z,65.89
2018-03-24T10:10:11.734Z,66.08
2018-03-24T10:10:37.238Z,66.46
2018-03-24T10:11:02.802Z,66.94
2018-03-24T10:11:28.257Z,67.7
2018-03-24T10:11:53.768Z,67.03
2018-03-24T10:12:19.216Z,66.94
2018-03-24T10:12:44.727Z,66.08
2018-03-24T10:13:10.230Z,65.51
2018-03-24T10:13:35.723Z,65.32
2018-03-24T10:14:01.216Z,65.99
2018-03-24T10:14:26.698Z,67.13
2018-03-24T10:14:52.164Z,66.85
2018-03-24T10:15:17.625Z,67.51
2018-03-24T10:16:11.565Z,67.7
2018-03-24T10:16:37.058Z,67.89
2018-03-24T10:17:02.586Z,67.89
2018-03-24T10:17:28.035Z,67.41
2018-03-24T10:17:53.522Z,67.8
2018-03-24T10:18:19.012Z,66.85
2018-03-24T10:18:44.504Z,66.85
2018-03-24T10:19:09.993Z,66.08
2018-03-24T10:19:35.478Z,65.89
2018-03-24T10:20:00.978Z,66.75
2018-03-24T10:20:26.505Z,67.13
2018-03-24T10:20:51.957Z,66.66
2018-03-24T10:21:17.430Z,66.75
2018-03-24T10:21:42.913Z,66.56
2018-03-24T10:22:08.393Z,65.99
2018-03-24T10:22:33.862Z,65.89
2018-03-24T10:22:59.337Z,65.51
2018-03-24T10:23:24.827Z,64.08
2018-03-24T10:23:50.320Z,64.08
2018-03-24T10:24:15.848Z,63.89
2018-03-24T10:24:41.237Z,63.99
2018-03-24T10:25:06.721Z,64.08
2018-03-24T10:25:32.222Z,64.37
2018-03-24T10:25:57.809Z,64.75
2018-03-24T10:26:23.310Z,65.42
2018-03-24T10:26:48.737Z,65.23
2018-03-24T10:27:14.203Z,66.27
2018-03-24T10:27:39.734Z,66.46
2018-03-24T10:28:05.208Z,66.94
2018-03-24T10:28:30.657Z,66.37
2018-03-24T10:28:56.158Z,66.18
2018-03-24T10:29:21.654Z,65.13
2018-03-24T10:29:47.183Z,64.18
2018-03-24T10:30:12.727Z,63.42
2018-03-24T10:30:38.190Z,63.6
2018-03-24T10:31:03.724Z,63.7
2018-03-24T10:31:29.246Z,63.6
2018-03-24T10:31:54.779Z,63.04
2018-03-24T10:32:20.309Z,62.75
2018-03-24T10:32:45.802Z,62.37
2018-03-24T10:33:11.305Z,62.18
2018-03-24T10:33:36.792Z,62.85
2018-03-24T10:34:02.284Z,64.08
2018-03-24T10:34:27.799Z,64.65
2018-03-24T10:34:53.437Z,64.65
2018-03-24T10:35:18.866Z,63.6
2018-03-24T10:35:44.400Z,64.47
2018-03-24T10:36:09.896Z,64.08
2018-03-24T10:36:35.391Z,64.47
2018-03-24T10:37:00.900Z,63.8
2018-03-24T10:37:26.395Z,64.31
2018-03-24T10:37:51.921Z,64.65
2018-03-24T10:38:17.392Z,64.78
2018-03-24T10:38:42.995Z,63.99
2018-03-24T10:39:08.538Z,63.64
2018-03-24T10:39:33.997Z,63.64
2018-03-24T10:39:59.486Z,63.51
2018-03-24T10:40:25.046Z,63.8
2018-03-24T10:40:50.532Z,63.64
2018-03-24T10:41:16.120Z,63.32
2018-03-24T10:41:41.660Z,63.17
2018-03-24T10:42:07.174Z,62.59
2018-03-24T10:42:32.669Z,62.4
2018-03-24T10:42:58.220Z,63.45
2018-03-24T10:43:23.692Z,64.02
2018-03-24T10:43:49.162Z,64.4
2018-03-24T10:44:14.636Z,63.92
2018-03-24T10:44:40.128Z,63.45
2018-03-24T10:45:05.632Z,63.17
2018-03-24T10:45:31.200Z,62.4
2018-03-24T10:45:56.702Z,62.02
2018-03-24T10:46:22.209Z,62.21
2018-03-24T10:46:47.722Z,63.07
2018-03-24T10:47:13.274Z,63.35
2018-03-24T10:47:38.772Z,63.64
2018-03-24T10:48:04.296Z,64.21
2018-03-24T10:49:07.952Z,63.17
2018-03-24T10:49:33.455Z,62.12
2018-03-24T10:49:59.036Z,62.02
2018-03-24T10:50:24.521Z,61.83
2018-03-24T10:50:50.030Z,62.02
2018-03-24T10:51:15.519Z,62.12
2018-03-24T10:51:41.088Z,62.21
2018-03-24T10:52:06.528Z,62.02
2018-03-24T10:52:32.047Z,61.25
2018-03-24T10:52:57.502Z,61.35
2018-03-24T10:53:22.979Z,62.88
2018-03-24T10:53:48.488Z,61.45
2018-03-24T10:54:13.978Z,60.88
2018-03-24T10:54:39.492Z,60.11
2018-03-24T10:55:04.998Z,59.83
2018-03-24T10:55:30.508Z,60.11
2018-03-24T10:55:56.004Z,59.83
2018-03-24T10:56:21.478Z,60.11
2018-03-24T10:56:46.989Z,60.21
2018-03-24T10:57:12.496Z,61.45
2018-03-24T10:57:38.024Z,61.83
2018-03-24T10:58:03.561Z,62.21
2018-03-24T10:58:29.017Z,61.83
2018-03-24T10:58:54.516Z,62.21
2018-03-24T10:59:20.014Z,62.4
2018-03-24T10:59:45.510Z,62.3
2018-03-24T11:00:10.994Z,62.49
2018-03-24T11:00:36.502Z,62.88
2018-03-24T11:01:01.992Z,63.83
2018-03-24T11:01:27.501Z,63.07
2018-03-24T11:01:52.998Z,63.73
2018-03-24T11:02:18.483Z,63.45
2018-03-24T11:02:43.981Z,63.92
2018-03-24T11:03:09.522Z,63.83
2018-03-24T11:03:34.987Z,63.17
2018-03-24T11:04:00.426Z,62.97
2018-03-24T11:04:25.959Z,62.02
2018-03-24T11:04:51.529Z,62.02
2018-03-24T11:05:16.997Z,62.02
2018-03-24T11:05:42.462Z,62.59
2018-03-24T11:06:07.908Z,63.07
2018-03-24T11:06:33.376Z,62.68
2018-03-24T11:06:58.867Z,62.49
2018-03-24T11:07:24.425Z,62.02
2018-03-24T11:07:49.927Z,62.59
2018-03-24T11:08:15.411Z,62.3
2018-03-24T11:08:40.898Z,60.11
2018-03-24T11:09:06.429Z,60.11
2018-03-24T11:09:31.994Z,59.45
2018-03-24T11:09:57.456Z,59.06
2018-03-24T11:10:22.956Z,59.26
2018-03-24T11:10:48.483Z,59.16
2018-03-24T11:11:14.040Z,60.11
2018-03-24T11:11:39.479Z,59.54
2018-03-24T11:12:05.034Z,59.54
2018-03-24T11:12:30.530Z,59.26
2018-03-24T11:12:56.017Z,58.4
2018-03-24T11:13:21.550Z,58.59
2018-03-24T11:13:47.057Z,59.26
2018-03-24T11:14:12.563Z,59.64
2018-03-24T11:14:38.074Z,60.11
2018-03-24T11:15:03.551Z,60.4
2018-03-24T11:15:29.018Z,60.4
2018-03-24T11:15:54.513Z,61.07
2018-03-24T11:16:20.000Z,61.35
2018-03-24T11:16:45.568Z,61.45
2018-03-24T11:17:10.968Z,61.45
2018-03-24T11:17:36.470Z,60.59
2018-03-24T11:18:01.988Z,60.69
2018-03-24T11:18:27.470Z,61.25
2018-03-24T11:18:52.988Z,61.25
2018-03-24T11:19:18.434Z,60.69
2018-03-24T11:19:43.929Z,61.16
2018-03-24T11:20:09.426Z,62.12
2018-03-24T11:20:35.006Z,62.3
2018-03-24T11:21:00.430Z,62.02
2018-03-24T11:21:25.914Z,60.72
2018-03-24T11:21:51.382Z,60.81
2018-03-24T11:22:16.905Z,60.49
2018-03-24T11:22:42.409Z,59.76
2018-03-24T11:23:07.913Z,58.91
2018-03-24T11:23:33.429Z,59.76
2018-03-24T11:23:58.913Z,60.43
2018-03-24T11:24:24.380Z,60.43
2018-03-24T11:24:49.875Z,60.24
2018-03-24T11:25:15.376Z,60.33
2018-03-24T11:25:40.882Z,60.05
2018-03-24T11:26:06.399Z,60.62
2018-03-24T11:26:31.980Z,60.24
2018-03-24T11:26:57.470Z,60.33
2018-03-24T11:27:22.996Z,59.95
2018-03-24T11:27:48.488Z,59.19
2018-03-24T11:28:13.975Z,58.91
2018-03-24T11:28:39.507Z,58.91
2018-03-24T11:29:05.042Z,58.52
2018-03-24T11:29:30.507Z,58.62
2018-03-24T11:29:56.056Z,58.94
2018-03-24T11:30:21.551Z,59.31